Sigas Ingrid — VRCQ6 — position and weather

sailwx.info

Track history (hours):
 
Tides and Currents Weather Stations Pressure Air Temp Water Temp Dewpoint Dewpoint Depression Visibility Wind Speed Wind Dir Waves Ship Positions

Sigas Ingrid

Last reported at 2015-May-02 12:26 UTC. Time now 2015-May-05 21:21 UTC.
Position N 22°05' E 113°50'.

Length 100 m; draft 4.7 m.

Type: Ship (hazmat cat B). MMSI: 477658800.

Date/timePositionNaut miles runAvg speedWind from/ knotsBaromVisibWave heightAir tempDewpointWater temp
2015-May-02 12:26N 22°05' E 113°50'910.4
2015-May-02 11:32N 22°15' E 113°48'2411.9
2015-May-02 09:33N 22°38' E 113°42'1010.3
2015-May-02 08:33N 22°47' E 113°37'9 9.3
2015-May-02 07:33N 22°56' E 113°33'1 1.2
2015-May-02 06:21N 22°57' E 113°33'0 0.0
2015-May-02 05:27N 22°57' E 113°33'0 0.0
2015-May-02 04:33N 22°57' E 113°33'0 0.0
2015-May-02 03:27N 22°57' E 113°33'0 0.0
2015-May-02 02:33N 22°57' E 113°33'0 0.0
2015-May-02 01:27N 22°57' E 113°33'0 0.0
2015-May-02 00:27N 22°57' E 113°33'0 0.0
2015-May-01 23:33N 22°57' E 113°33'0 0.0
2015-May-01 22:27N 22°57' E 113°33'0 0.0
2015-May-01 21:09N 22°57' E 113°33'0 0.0
2015-May-01 20:33N 22°57' E 113°33'0 0.0
2015-May-01 19:33N 22°57' E 113°33'0 0.0
2015-May-01 18:33N 22°57' E 113°33'0 0.0
2015-May-01 17:33N 22°57' E 113°33'0 0.0
2015-May-01 16:33N 22°57' E 113°33'0 0.0
2015-May-01 15:15N 22°57' E 113°33'0 0.0
2015-May-01 14:27N 22°57' E 113°33'0 0.0
2015-May-01 13:27N 22°57' E 113°33'0 0.0
2015-May-01 12:33N 22°57' E 113°33'0 0.0
2015-May-01 11:33N 22°57' E 113°33'0 0.0
2015-May-01 10:33N 22°57' E 113°33'0 0.0
2015-May-01 09:27N 22°57' E 113°33'0 0.0
2015-May-01 08:33N 22°57' E 113°33'0 0.0
2015-May-01 07:33N 22°57' E 113°33'0 0.0
2015-May-01 06:33N 22°57' E 113°33'1 1.5
2015-May-01 05:33N 22°56' E 113°33'1110.2
2015-May-01 04:26N 22°45' E 113°39'2412.1
2015-May-01 02:25N 22°22' E 113°47'1112.5
2015-May-01 01:33N 22°11' E 113°47'3 3.2
2015-May-01 00:30N 22°08' E 113°47'0 0.0
2015-Apr-30 23:30N 22°08' E 113°47'0 0.0
2015-Apr-30 22:30N 22°08' E 113°47'0 0.1
2015-Apr-30 21:30N 22°08' E 113°47'0 0.0
2015-Apr-30 20:30N 22°08' E 113°47'0 0.0
2015-Apr-30 19:30N 22°08' E 113°47'0 0.1
2015-Apr-30 18:24N 22°08' E 113°47'1 0.7
2015-Apr-30 17:33N 22°08' E 113°47'  
2015-Apr-22 21:34N 01°15' E 104°03'1615.8
2015-Apr-22 20:33N 01°10' E 103°48'7013.5
2015-Apr-22 15:23N 01°39' E 102°45'2015.6
2015-Apr-22 14:05N 01°48' E 102°27'1115.4
2015-Apr-22 13:23N 01°53' E 102°17'  
Track history (hours):
 
Tides and Currents Weather Stations Pressure Air Temp Water Temp Dewpoint Dewpoint Depression Visibility Wind Speed Wind Dir Waves Ship Positions

Sigas Ingrid

Last reported at 2015-May-02 12:26 UTC. Time now 2015-May-05 21:21 UTC.
Position N 22°05' E 113°50'.

Length 100 m; draft 4.7 m.

Type: Ship (hazmat cat B). MMSI: 477658800.

Date/timePositionNaut miles runAvg speedWind from/ knotsBaromVisibWave heightAir tempDewpointWater temp
2015-May-02 12:26N 22°05' E 113°50'910.4
2015-May-02 11:32N 22°15' E 113°48'2411.9
2015-May-02 09:33N 22°38' E 113°42'1010.3
2015-May-02 08:33N 22°47' E 113°37'9 9.3
2015-May-02 07:33N 22°56' E 113°33'1 1.2
2015-May-02 06:21N 22°57' E 113°33'0 0.0
2015-May-02 05:27N 22°57' E 113°33'0 0.0
2015-May-02 04:33N 22°57' E 113°33'0 0.0
2015-May-02 03:27N 22°57' E 113°33'0 0.0
2015-May-02 02:33N 22°57' E 113°33'0 0.0
2015-May-02 01:27N 22°57' E 113°33'0 0.0
2015-May-02 00:27N 22°57' E 113°33'0 0.0
2015-May-01 23:33N 22°57' E 113°33'0 0.0
2015-May-01 22:27N 22°57' E 113°33'0 0.0
2015-May-01 21:09N 22°57' E 113°33'0 0.0
2015-May-01 20:33N 22°57' E 113°33'0 0.0
2015-May-01 19:33N 22°57' E 113°33'0 0.0
2015-May-01 18:33N 22°57' E 113°33'0 0.0
2015-May-01 17:33N 22°57' E 113°33'0 0.0
2015-May-01 16:33N 22°57' E 113°33'0 0.0
2015-May-01 15:15N 22°57' E 113°33'0 0.0
2015-May-01 14:27N 22°57' E 113°33'0 0.0
2015-May-01 13:27N 22°57' E 113°33'0 0.0
2015-May-01 12:33N 22°57' E 113°33'0 0.0
2015-May-01 11:33N 22°57' E 113°33'0 0.0
2015-May-01 10:33N 22°57' E 113°33'0 0.0
2015-May-01 09:27N 22°57' E 113°33'0 0.0
2015-May-01 08:33N 22°57' E 113°33'0 0.0
2015-May-01 07:33N 22°57' E 113°33'0 0.0
2015-May-01 06:33N 22°57' E 113°33'1 1.5
2015-May-01 05:33N 22°56' E 113°33'1110.2
2015-May-01 04:26N 22°45' E 113°39'2412.1
2015-May-01 02:25N 22°22' E 113°47'1112.5
2015-May-01 01:33N 22°11' E 113°47'3 3.2
2015-May-01 00:30N 22°08' E 113°47'0 0.0
2015-Apr-30 23:30N 22°08' E 113°47'0 0.0
2015-Apr-30 22:30N 22°08' E 113°47'0 0.1
2015-Apr-30 21:30N 22°08' E 113°47'0 0.0
2015-Apr-30 20:30N 22°08' E 113°47'0 0.0
2015-Apr-30 19:30N 22°08' E 113°47'0 0.1
2015-Apr-30 18:24N 22°08' E 113°47'1 0.7
2015-Apr-30 17:33N 22°08' E 113°47'  
2015-Apr-22 21:34N 01°15' E 104°03'1615.8
2015-Apr-22 20:33N 01°10' E 103°48'7013.5
2015-Apr-22 15:23N 01°39' E 102°45'2015.6
2015-Apr-22 14:05N 01°48' E 102°27'1115.4
2015-Apr-22 13:23N 01°53' E 102°17'  

Dump ship's entire track history